sensor_id;sensor_type;location;lat;lon;timestamp;temperature;humidity
6822;DHT22;3449;48.728;8.968;2023-07-13T00:01:45;18.30;99.90
6822;DHT22;3449;48.728;8.968;2023-07-13T00:04:18;18.20;99.90
6822;DHT22;3449;48.728;8.968;2023-07-13T00:06:47;18.20;99.90
6822;DHT22;3449;48.728;8.968;2023-07-13T00:09:15;18.10;99.90
6822;DHT22;3449;48.728;8.968;2023-07-13T00:11:43;18.20;99.90
6822;DHT22;3449;48.728;8.968;2023-07-13T00:14:10;18.10;99.90
6822;DHT22;3449;48.728;8.968;2023-07-13T00:16:39;18.00;99.90
6822;DHT22;3449;48.728;8.968;2023-07-13T00:19:09;18.00;99.90
6822;DHT22;3449;48.728;8.968;2023-07-13T00:21:36;18.00;99.90
6822;DHT22;3449;48.728;8.968;2023-07-13T00:24:05;17.90;99.90
6822;DHT22;3449;48.728;8.968;2023-07-13T00:26:32;17.90;99.90
6822;DHT22;3449;48.728;8.968;2023-07-13T00:28:59;17.90;99.90
6822;DHT22;3449;48.728;8.968;2023-07-13T00:31:26;17.90;99.90
6822;DHT22;3449;48.728;8.968;2023-07-13T00:33:55;17.80;99.90
6822;DHT22;3449;48.728;8.968;2023-07-13T00:36:25;17.80;99.90
6822;DHT22;3449;48.728;8.968;2023-07-13T00:38:52;17.80;99.90
6822;DHT22;3449;48.728;8.968;2023-07-13T00:41:20;17.90;99.90
6822;DHT22;3449;48.728;8.968;2023-07-13T00:43:47;17.90;99.90
6822;DHT22;3449;48.728;8.968;2023-07-13T00:46:21;18.00;99.90
6822;DHT22;3449;48.728;8.968;2023-07-13T00:48:50;18.00;99.90
6822;DHT22;3449;48.728;8.968;2023-07-13T00:51:21;18.10;99.90
6822;DHT22;3449;48.728;8.968;2023-07-13T00:53:49;18.10;99.90
6822;DHT22;3449;48.728;8.968;2023-07-13T00:56:16;18.10;99.90
6822;DHT22;3449;48.728;8.968;2023-07-13T00:58:46;18.10;99.90
6822;DHT22;3449;48.728;8.968;2023-07-13T01:01:13;18.20;99.90
6822;DHT22;3449;48.728;8.968;2023-07-13T01:03:40;18.20;99.90
6822;DHT22;3449;48.728;8.968;2023-07-13T01:06:10;18.20;99.90
6822;DHT22;3449;48.728;8.968;2023-07-13T01:08:37;18.20;99.90
6822;DHT22;3449;48.728;8.968;2023-07-13T01:11:05;18.20;99.90
6822;DHT22;3449;48.728;8.968;2023-07-13T01:13:33;18.20;99.90
6822;DHT22;3449;48.728;8.968;2023-07-13T01:16:05;18.20;99.90
6822;DHT22;3449;48.728;8.968;2023-07-13T01:18:39;18.10;99.90
6822;DHT22;3449;48.728;8.968;2023-07-13T01:21:07;18.00;99.90
6822;DHT22;3449;48.728;8.968;2023-07-13T01:23:34;18.00;99.90
6822;DHT22;3449;48.728;8.968;2023-07-13T01:26:00;17.90;99.90
6822;DHT22;3449;48.728;8.968;2023-07-13T01:28:28;17.90;99.90
6822;DHT22;3449;48.728;8.968;2023-07-13T01:30:58;17.90;99.90
6822;DHT22;3449;48.728;8.968;2023-07-13T01:33:26;17.80;99.90
6822;DHT22;3449;48.728;8.968;2023-07-13T01:35:53;17.80;99.90
6822;DHT22;3449;48.728;8.968;2023-07-13T01:38:24;17.70;99.90
6822;DHT22;3449;48.728;8.968;2023-07-13T01:40:52;17.70;99.90
6822;DHT22;3449;48.728;8.968;2023-07-13T01:43:19;17.70;99.90
6822;DHT22;3449;48.728;8.968;2023-07-13T01:45:46;17.70;99.90
6822;DHT22;3449;48.728;8.968;2023-07-13T01:48:14;17.70;99.90
6822;DHT22;3449;48.728;8.968;2023-07-13T01:50:40;17.60;99.90
6822;DHT22;3449;48.728;8.968;2023-07-13T01:53:08;17.50;99.90
6822;DHT22;3449;48.728;8.968;2023-07-13T01:55:39;17.40;99.90
6822;DHT22;3449;48.728;8.968;2023-07-13T01:58:06;17.30;99.90
6822;DHT22;3449;48.728;8.968;2023-07-13T02:00:33;17.20;99.90
6822;DHT22;3449;48.728;8.968;2023-07-13T02:03:00;17.20;99.90
6822;DHT22;3449;48.728;8.968;2023-07-13T02:05:26;17.20;99.90
6822;DHT22;3449;48.728;8.968;2023-07-13T02:07:53;17.10;99.90
6822;DHT22;3449;48.728;8.968;2023-07-13T02:10:20;17.10;99.90
6822;DHT22;3449;48.728;8.968;2023-07-13T02:12:49;17.10;99.90
6822;DHT22;3449;48.728;8.968;2023-07-13T02:15:16;17.10;99.90
6822;DHT22;3449;48.728;8.968;2023-07-13T02:17:43;17.10;99.90
6822;DHT22;3449;48.728;8.968;2023-07-13T02:20:10;17.00;99.90
6822;DHT22;3449;48.728;8.968;2023-07-13T02:22:39;17.00;99.90
6822;DHT22;3449;48.728;8.968;2023-07-13T02:25:06;17.00;99.90
6822;DHT22;3449;48.728;8.968;2023-07-13T02:27:33;16.90;99.90
6822;DHT22;3449;48.728;8.968;2023-07-13T02:30:02;16.80;99.90
6822;DHT22;3449;48.728;8.968;2023-07-13T02:32:29;16.70;99.90
6822;DHT22;3449;48.728;8.968;2023-07-13T02:34:55;16.70;99.90
6822;DHT22;3449;48.728;8.968;2023-07-13T02:37:22;16.70;99.90
6822;DHT22;3449;48.728;8.968;2023-07-13T02:39:49;16.60;99.90
6822;DHT22;3449;48.728;8.968;2023-07-13T02:42:16;16.70;99.90
6822;DHT22;3449;48.728;8.968;2023-07-13T02:44:43;16.60;99.90
6822;DHT22;3449;48.728;8.968;2023-07-13T02:47:15;16.60;99.90
6822;DHT22;3449;48.728;8.968;2023-07-13T02:49:41;16.50;99.90
6822;DHT22;3449;48.728;8.968;2023-07-13T02:52:09;16.50;99.90
6822;DHT22;3449;48.728;8.968;2023-07-13T02:54:36;16.40;99.90
6822;DHT22;3449;48.728;8.968;2023-07-13T02:57:04;16.40;99.90
6822;DHT22;3449;48.728;8.968;2023-07-13T02:59:31;16.30;99.90
6822;DHT22;3449;48.728;8.968;2023-07-13T03:01:58;16.30;99.90
6822;DHT22;3449;48.728;8.968;2023-07-13T03:04:26;16.30;99.90
6822;DHT22;3449;48.728;8.968;2023-07-13T03:06:53;16.30;99.90
6822;DHT22;3449;48.728;8.968;2023-07-13T03:09:23;16.30;99.90
6822;DHT22;3449;48.728;8.968;2023-07-13T03:11:52;16.40;99.90
6822;DHT22;3449;48.728;8.968;2023-07-13T03:14:19;16.50;99.90
6822;DHT22;3449;48.728;8.968;2023-07-13T03:16:46;16.50;99.90
6822;DHT22;3449;48.728;8.968;2023-07-13T03:19:13;16.50;99.90
6822;DHT22;3449;48.728;8.968;2023-07-13T03:21:41;16.50;99.90
6822;DHT22;3449;48.728;8.968;2023-07-13T03:24:08;16.40;99.90
6822;DHT22;3449;48.728;8.968;2023-07-13T03:26:35;16.40;99.90
6822;DHT22;3449;48.728;8.968;2023-07-13T03:29:02;16.40;99.90
6822;DHT22;3449;48.728;8.968;2023-07-13T03:31:33;16.50;99.90
6822;DHT22;3449;48.728;8.968;2023-07-13T03:34:00;16.40;99.90
6822;DHT22;3449;48.728;8.968;2023-07-13T03:36:28;16.40;99.90
6822;DHT22;3449;48.728;8.968;2023-07-13T03:38:58;16.40;99.90
6822;DHT22;3449;48.728;8.968;2023-07-13T03:41:26;16.50;99.90
6822;DHT22;3449;48.728;8.968;2023-07-13T03:43:53;16.50;99.90
6822;DHT22;3449;48.728;8.968;2023-07-13T03:46:20;16.50;99.90
6822;DHT22;3449;48.728;8.968;2023-07-13T03:48:47;16.50;99.90
6822;DHT22;3449;48.728;8.968;2023-07-13T03:51:16;16.60;99.90
6822;DHT22;3449;48.728;8.968;2023-07-13T03:53:45;16.70;99.90
6822;DHT22;3449;48.728;8.968;2023-07-13T03:56:17;16.80;99.90
6822;DHT22;3449;48.728;8.968;2023-07-13T03:58:46;16.80;99.90
6822;DHT22;3449;48.728;8.968;2023-07-13T04:01:17;16.80;99.90
6822;DHT22;3449;48.728;8.968;2023-07-13T04:03:44;16.80;99.90
6822;DHT22;3449;48.728;8.968;2023-07-13T04:06:15;16.70;99.90
6822;DHT22;3449;48.728;8.968;2023-07-13T04:08:47;16.60;99.90
6822;DHT22;3449;48.728;8.968;2023-07-13T04:11:16;16.60;99.90
6822;DHT22;3449;48.728;8.968;2023-07-13T04:13:43;16.50;99.90
6822;DHT22;3449;48.728;8.968;2023-07-13T04:16:10;16.50;99.90
6822;DHT22;3449;48.728;8.968;2023-07-13T04:18:37;16.50;99.90
6822;DHT22;3449;48.728;8.968;2023-07-13T04:21:04;16.50;99.90
6822;DHT22;3449;48.728;8.968;2023-07-13T04:23:32;16.50;99.90
6822;DHT22;3449;48.728;8.968;2023-07-13T04:25:59;16.50;99.90
6822;DHT22;3449;48.728;8.968;2023-07-13T04:28:27;16.50;99.90
6822;DHT22;3449;48.728;8.968;2023-07-13T04:30:54;16.40;99.90
6822;DHT22;3449;48.728;8.968;2023-07-13T04:33:21;16.40;99.90
6822;DHT22;3449;48.728;8.968;2023-07-13T04:35:52;16.40;99.90
6822;DHT22;3449;48.728;8.968;2023-07-13T04:38:22;16.30;99.90
6822;DHT22;3449;48.728;8.968;2023-07-13T04:40:51;16.30;99.90
6822;DHT22;3449;48.728;8.968;2023-07-13T04:43:18;16.30;99.90
6822;DHT22;3449;48.728;8.968;2023-07-13T04:45:47;16.20;99.90
6822;DHT22;3449;48.728;8.968;2023-07-13T04:48:13;16.20;99.90
6822;DHT22;3449;48.728;8.968;2023-07-13T04:50:40;16.20;99.90
6822;DHT22;3449;48.728;8.968;2023-07-13T04:53:09;16.20;99.90
6822;DHT22;3449;48.728;8.968;2023-07-13T04:55:36;16.20;99.90
6822;DHT22;3449;48.728;8.968;2023-07-13T04:58:06;16.20;99.90
6822;DHT22;3449;48.728;8.968;2023-07-13T05:00:33;16.30;99.90
6822;DHT22;3449;48.728;8.968;2023-07-13T05:03:03;16.30;99.90
6822;DHT22;3449;48.728;8.968;2023-07-13T05:05:29;16.30;99.90
6822;DHT22;3449;48.728;8.968;2023-07-13T05:07:58;16.40;99.90
6822;DHT22;3449;48.728;8.968;2023-07-13T05:10:25;16.40;99.90
6822;DHT22;3449;48.728;8.968;2023-07-13T05:12:52;16.50;99.90
6822;DHT22;3449;48.728;8.968;2023-07-13T05:15:21;16.60;99.90
6822;DHT22;3449;48.728;8.968;2023-07-13T05:17:49;16.70;99.90
6822;DHT22;3449;48.728;8.968;2023-07-13T05:20:18;16.80;99.90
6822;DHT22;3449;48.728;8.968;2023-07-13T05:22:45;16.90;99.90
6822;DHT22;3449;48.728;8.968;2023-07-13T05:25:13;17.00;99.90
6822;DHT22;3449;48.728;8.968;2023-07-13T05:27:40;17.00;99.90
6822;DHT22;3449;48.728;8.968;2023-07-13T05:30:08;17.10;99.90
6822;DHT22;3449;48.728;8.968;2023-07-13T05:32:37;17.20;99.90
6822;DHT22;3449;48.728;8.968;2023-07-13T05:35:05;17.20;99.90
6822;DHT22;3449;48.728;8.968;2023-07-13T05:37:33;17.30;99.90
6822;DHT22;3449;48.728;8.968;2023-07-13T05:40:00;17.30;99.90
6822;DHT22;3449;48.728;8.968;2023-07-13T05:42:27;17.40;99.90
6822;DHT22;3449;48.728;8.968;2023-07-13T05:44:54;17.40;99.90
6822;DHT22;3449;48.728;8.968;2023-07-13T05:47:24;17.30;99.90
6822;DHT22;3449;48.728;8.968;2023-07-13T05:49:53;17.30;99.90
6822;DHT22;3449;48.728;8.968;2023-07-13T05:52:20;17.40;99.90
6822;DHT22;3449;48.728;8.968;2023-07-13T05:54:48;17.50;99.90
6822;DHT22;3449;48.728;8.968;2023-07-13T05:57:15;17.60;99.90
6822;DHT22;3449;48.728;8.968;2023-07-13T05:59:42;17.60;99.90
6822;DHT22;3449;48.728;8.968;2023-07-13T06:02:09;17.60;99.90
6822;DHT22;3449;48.728;8.968;2023-07-13T06:04:36;17.70;99.90
6822;DHT22;3449;48.728;8.968;2023-07-13T06:07:03;17.80;99.90
6822;DHT22;3449;48.728;8.968;2023-07-13T06:09:34;17.90;99.90
6822;DHT22;3449;48.728;8.968;2023-07-13T06:12:03;18.00;99.90
6822;DHT22;3449;48.728;8.968;2023-07-13T06:14:29;18.10;99.90
6822;DHT22;3449;48.728;8.968;2023-07-13T06:16:59;18.20;99.90
6822;DHT22;3449;48.728;8.968;2023-07-13T06:19:26;18.20;99.90
6822;DHT22;3449;48.728;8.968;2023-07-13T06:21:53;18.20;99.90
6822;DHT22;3449;48.728;8.968;2023-07-13T06:24:24;18.30;99.90
6822;DHT22;3449;48.728;8.968;2023-07-13T06:26:50;18.50;99.90
6822;DHT22;3449;48.728;8.968;2023-07-13T06:29:19;18.80;99.90
6822;DHT22;3449;48.728;8.968;2023-07-13T06:31:45;18.80;99.90
6822;DHT22;3449;48.728;8.968;2023-07-13T06:34:12;19.00;99.90
6822;DHT22;3449;48.728;8.968;2023-07-13T06:36:39;19.10;99.90
6822;DHT22;3449;48.728;8.968;2023-07-13T06:39:06;19.20;99.90
6822;DHT22;3449;48.728;8.968;2023-07-13T06:41:33;19.40;99.90
6822;DHT22;3449;48.728;8.968;2023-07-13T06:44:00;19.60;99.90
6822;DHT22;3449;48.728;8.968;2023-07-13T06:46:31;19.80;99.90
6822;DHT22;3449;48.728;8.968;2023-07-13T06:48:58;19.90;99.90
6822;DHT22;3449;48.728;8.968;2023-07-13T06:51:27;20.10;99.90
6822;DHT22;3449;48.728;8.968;2023-07-13T06:53:53;20.20;99.90
6822;DHT22;3449;48.728;8.968;2023-07-13T06:56:21;20.20;99.90
6822;DHT22;3449;48.728;8.968;2023-07-13T06:58:48;20.40;99.90
6822;DHT22;3449;48.728;8.968;2023-07-13T07:01:15;20.60;99.90
6822;DHT22;3449;48.728;8.968;2023-07-13T07:03:43;20.70;99.90
6822;DHT22;3449;48.728;8.968;2023-07-13T07:06:13;20.90;99.90
6822;DHT22;3449;48.728;8.968;2023-07-13T07:08:41;21.00;99.90
6822;DHT22;3449;48.728;8.968;2023-07-13T07:11:10;21.00;99.90
6822;DHT22;3449;48.728;8.968;2023-07-13T07:13:40;21.30;99.90
6822;DHT22;3449;48.728;8.968;2023-07-13T07:16:07;21.30;99.90
6822;DHT22;3449;48.728;8.968;2023-07-13T07:18:34;21.40;99.90
6822;DHT22;3449;48.728;8.968;2023-07-13T07:21:04;21.60;99.90
6822;DHT22;3449;48.728;8.968;2023-07-13T07:23:32;21.70;99.90
6822;DHT22;3449;48.728;8.968;2023-07-13T07:25:59;22.00;99.90
6822;DHT22;3449;48.728;8.968;2023-07-13T07:28:26;22.10;99.90
6822;DHT22;3449;48.728;8.968;2023-07-13T07:30:55;22.20;99.90
6822;DHT22;3449;48.728;8.968;2023-07-13T07:33:23;22.40;99.90
6822;DHT22;3449;48.728;8.968;2023-07-13T07:35:50;22.40;99.90
6822;DHT22;3449;48.728;8.968;2023-07-13T07:38:19;22.50;99.90
6822;DHT22;3449;48.728;8.968;2023-07-13T07:40:45;22.50;99.90
6822;DHT22;3449;48.728;8.968;2023-07-13T07:43:13;22.60;99.90
6822;DHT22;3449;48.728;8.968;2023-07-13T07:45:40;22.60;99.90
6822;DHT22;3449;48.728;8.968;2023-07-13T07:48:07;22.80;99.90
6822;DHT22;3449;48.728;8.968;2023-07-13T07:50:35;22.90;99.90
6822;DHT22;3449;48.728;8.968;2023-07-13T07:53:02;23.20;99.90
6822;DHT22;3449;48.728;8.968;2023-07-13T07:55:34;23.20;99.90
6822;DHT22;3449;48.728;8.968;2023-07-13T07:58:01;23.30;99.90
6822;DHT22;3449;48.728;8.968;2023-07-13T08:00:28;23.40;99.90
6822;DHT22;3449;48.728;8.968;2023-07-13T08:02:57;23.50;99.90
6822;DHT22;3449;48.728;8.968;2023-07-13T08:05:25;23.60;99.90
6822;DHT22;3449;48.728;8.968;2023-07-13T08:07:52;23.70;99.90
6822;DHT22;3449;48.728;8.968;2023-07-13T08:10:19;23.50;99.90
6822;DHT22;3449;48.728;8.968;2023-07-13T08:12:48;23.60;99.90
6822;DHT22;3449;48.728;8.968;2023-07-13T08:15:16;23.80;99.90
6822;DHT22;3449;48.728;8.968;2023-07-13T08:17:43;24.00;99.90
6822;DHT22;3449;48.728;8.968;2023-07-13T08:20:10;24.20;99.90
6822;DHT22;3449;48.728;8.968;2023-07-13T08:22:39;24.20;99.90
6822;DHT22;3449;48.728;8.968;2023-07-13T08:25:07;24.10;99.90
6822;DHT22;3449;48.728;8.968;2023-07-13T08:27:34;24.30;99.90
6822;DHT22;3449;48.728;8.968;2023-07-13T08:30:02;24.30;99.90
6822;DHT22;3449;48.728;8.968;2023-07-13T08:32:31;24.40;99.90
6822;DHT22;3449;48.728;8.968;2023-07-13T08:34:58;24.60;99.90
6822;DHT22;3449;48.728;8.968;2023-07-13T08:37:25;24.80;99.90
6822;DHT22;3449;48.728;8.968;2023-07-13T08:39:52;24.90;99.90
6822;DHT22;3449;48.728;8.968;2023-07-13T08:42:31;25.00;99.90
6822;DHT22;3449;48.728;8.968;2023-07-13T08:45:08;25.00;99.90
6822;DHT22;3449;48.728;8.968;2023-07-13T08:47:46;25.00;99.90
6822;DHT22;3449;48.728;8.968;2023-07-13T08:50:17;25.00;99.90
6822;DHT22;3449;48.728;8.968;2023-07-13T08:52:45;25.10;99.90
6822;DHT22;3449;48.728;8.968;2023-07-13T08:55:15;25.20;99.90
6822;DHT22;3449;48.728;8.968;2023-07-13T08:57:44;25.10;99.90
6822;DHT22;3449;48.728;8.968;2023-07-13T09:00:15;25.10;99.90
6822;DHT22;3449;48.728;8.968;2023-07-13T09:02:46;25.20;99.90
6822;DHT22;3449;48.728;8.968;2023-07-13T09:05:15;24.70;99.90
6822;DHT22;3449;48.728;8.968;2023-07-13T09:08:01;24.30;99.90
6822;DHT22;3449;48.728;8.968;2023-07-13T09:10:35;23.70;99.90
6822;DHT22;3449;48.728;8.968;2023-07-13T09:13:18;23.30;99.90
6822;DHT22;3449;48.728;8.968;2023-07-13T09:15:48;23.00;99.90
6822;DHT22;3449;48.728;8.968;2023-07-13T09:18:21;23.00;99.90
6822;DHT22;3449;48.728;8.968;2023-07-13T09:20:52;23.20;99.90
6822;DHT22;3449;48.728;8.968;2023-07-13T09:23:27;23.50;99.90
6822;DHT22;3449;48.728;8.968;2023-07-13T09:26:00;23.90;99.90
6822;DHT22;3449;48.728;8.968;2023-07-13T09:28:33;24.80;99.90
6822;DHT22;3449;48.728;8.968;2023-07-13T09:31:04;25.10;99.90
6822;DHT22;3449;48.728;8.968;2023-07-13T09:33:32;25.40;99.90
6822;DHT22;3449;48.728;8.968;2023-07-13T09:36:16;25.60;99.90
6822;DHT22;3449;48.728;8.968;2023-07-13T09:38:44;25.30;99.90
6822;DHT22;3449;48.728;8.968;2023-07-13T09:41:19;25.80;99.90
6822;DHT22;3449;48.728;8.968;2023-07-13T09:44:07;26.00;99.90
6822;DHT22;3449;48.728;8.968;2023-07-13T09:46:37;26.10;99.90
6822;DHT22;3449;48.728;8.968;2023-07-13T09:49:04;26.30;99.90
6822;DHT22;3449;48.728;8.968;2023-07-13T09:51:31;26.20;99.90
6822;DHT22;3449;48.728;8.968;2023-07-13T09:53:58;26.40;99.90
6822;DHT22;3449;48.728;8.968;2023-07-13T09:56:27;26.30;99.90
6822;DHT22;3449;48.728;8.968;2023-07-13T09:58:56;26.40;99.90
6822;DHT22;3449;48.728;8.968;2023-07-13T10:01:34;26.40;99.90
6822;DHT22;3449;48.728;8.968;2023-07-13T10:04:11;26.10;99.90
6822;DHT22;3449;48.728;8.968;2023-07-13T10:06:39;25.80;99.90
6822;DHT22;3449;48.728;8.968;2023-07-13T10:09:09;25.90;99.90
6822;DHT22;3449;48.728;8.968;2023-07-13T10:11:38;25.80;99.90
6822;DHT22;3449;48.728;8.968;2023-07-13T10:14:11;25.50;99.90
6822;DHT22;3449;48.728;8.968;2023-07-13T10:16:39;25.30;99.90
6822;DHT22;3449;48.728;8.968;2023-07-13T10:19:14;25.50;99.90
6822;DHT22;3449;48.728;8.968;2023-07-13T10:21:53;25.80;99.90
6822;DHT22;3449;48.728;8.968;2023-07-13T10:24:22;25.90;99.90
6822;DHT22;3449;48.728;8.968;2023-07-13T10:26:55;26.20;99.90
6822;DHT22;3449;48.728;8.968;2023-07-13T10:29:24;26.40;99.90
6822;DHT22;3449;48.728;8.968;2023-07-13T10:31:52;26.20;99.90
6822;DHT22;3449;48.728;8.968;2023-07-13T10:34:20;26.30;99.90
6822;DHT22;3449;48.728;8.968;2023-07-13T10:36:49;26.40;99.90
6822;DHT22;3449;48.728;8.968;2023-07-13T10:39:17;25.90;99.90
6822;DHT22;3449;48.728;8.968;2023-07-13T10:41:52;26.20;99.90
6822;DHT22;3449;48.728;8.968;2023-07-13T10:44:25;26.10;99.90
6822;DHT22;3449;48.728;8.968;2023-07-13T10:46:57;25.80;99.90
6822;DHT22;3449;48.728;8.968;2023-07-13T10:49:29;25.70;99.90
6822;DHT22;3449;48.728;8.968;2023-07-13T10:51:57;25.80;99.90
6822;DHT22;3449;48.728;8.968;2023-07-13T10:54:27;25.50;99.90
6822;DHT22;3449;48.728;8.968;2023-07-13T10:57:14;25.40;99.90
6822;DHT22;3449;48.728;8.968;2023-07-13T10:59:43;25.50;99.90
6822;DHT22;3449;48.728;8.968;2023-07-13T11:02:22;25.70;99.90
6822;DHT22;3449;48.728;8.968;2023-07-13T11:04:53;26.50;99.90
6822;DHT22;3449;48.728;8.968;2023-07-13T11:07:22;27.30;99.90
6822;DHT22;3449;48.728;8.968;2023-07-13T11:09:54;27.80;99.90
6822;DHT22;3449;48.728;8.968;2023-07-13T11:12:52;28.10;99.90
6822;DHT22;3449;48.728;8.968;2023-07-13T11:15:43;27.90;99.60
6822;DHT22;3449;48.728;8.968;2023-07-13T11:18:22;27.80;99.90
6822;DHT22;3449;48.728;8.968;2023-07-13T11:23:42;27.60;99.90
6822;DHT22;3449;48.728;8.968;2023-07-13T11:26:40;28.10;99.90
6822;DHT22;3449;48.728;8.968;2023-07-13T11:29:12;28.40;99.90
6822;DHT22;3449;48.728;8.968;2023-07-13T11:31:52;28.10;99.90
6822;DHT22;3449;48.728;8.968;2023-07-13T11:34:25;28.10;99.90
6822;DHT22;3449;48.728;8.968;2023-07-13T11:36:56;27.40;99.90
6822;DHT22;3449;48.728;8.968;2023-07-13T11:39:28;27.10;99.90
6822;DHT22;3449;48.728;8.968;2023-07-13T11:41:58;26.70;99.90
6822;DHT22;3449;48.728;8.968;2023-07-13T11:44:28;26.40;99.90
6822;DHT22;3449;48.728;8.968;2023-07-13T11:46:58;26.60;99.90
6822;DHT22;3449;48.728;8.968;2023-07-13T11:49:30;26.50;99.80
6822;DHT22;3449;48.728;8.968;2023-07-13T11:51:59;26.40;99.90
6822;DHT22;3449;48.728;8.968;2023-07-13T11:54:30;26.60;99.90
6822;DHT22;3449;48.728;8.968;2023-07-13T11:57:02;27.30;99.90
6822;DHT22;3449;48.728;8.968;2023-07-13T11:59:32;27.10;99.50
6822;DHT22;3449;48.728;8.968;2023-07-13T12:02:08;27.10;99.90
6822;DHT22;3449;48.728;8.968;2023-07-13T12:04:42;27.30;99.40
6822;DHT22;3449;48.728;8.968;2023-07-13T12:07:15;27.20;99.90
6822;DHT22;3449;48.728;8.968;2023-07-13T12:09:43;26.80;99.80
6822;DHT22;3449;48.728;8.968;2023-07-13T12:12:11;26.70;99.90
6822;DHT22;3449;48.728;8.968;2023-07-13T12:14:41;26.60;99.60
6822;DHT22;3449;48.728;8.968;2023-07-13T12:17:15;26.40;99.90
6822;DHT22;3449;48.728;8.968;2023-07-13T12:19:43;26.60;99.80
6822;DHT22;3449;48.728;8.968;2023-07-13T12:22:13;26.90;99.90
6822;DHT22;3449;48.728;8.968;2023-07-13T12:24:41;27.40;99.20
6822;DHT22;3449;48.728;8.968;2023-07-13T12:27:19;27.60;99.10
6822;DHT22;3449;48.728;8.968;2023-07-13T12:29:50;27.40;98.80
6822;DHT22;3449;48.728;8.968;2023-07-13T12:32:19;26.80;99.00
6822;DHT22;3449;48.728;8.968;2023-07-13T12:34:54;26.80;98.80
6822;DHT22;3449;48.728;8.968;2023-07-13T12:37:25;26.90;99.00
6822;DHT22;3449;48.728;8.968;2023-07-13T12:39:52;27.30;99.90
6822;DHT22;3449;48.728;8.968;2023-07-13T12:42:21;27.10;99.10
6822;DHT22;3449;48.728;8.968;2023-07-13T12:44:53;26.90;97.30
6822;DHT22;3449;48.728;8.968;2023-07-13T12:47:21;26.50;98.90
6822;DHT22;3449;48.728;8.968;2023-07-13T12:49:50;26.50;98.50
6822;DHT22;3449;48.728;8.968;2023-07-13T12:52:21;27.10;97.80
6822;DHT22;3449;48.728;8.968;2023-07-13T12:55:02;27.70;96.70
6822;DHT22;3449;48.728;8.968;2023-07-13T12:57:29;27.60;95.80
6822;DHT22;3449;48.728;8.968;2023-07-13T12:59:58;27.60;97.40
6822;DHT22;3449;48.728;8.968;2023-07-13T13:02:30;27.80;96.10
6822;DHT22;3449;48.728;8.968;2023-07-13T13:04:57;28.40;97.30
6822;DHT22;3449;48.728;8.968;2023-07-13T13:07:26;28.70;94.80
6822;DHT22;3449;48.728;8.968;2023-07-13T13:09:53;28.20;95.40
6822;DHT22;3449;48.728;8.968;2023-07-13T13:12:22;28.50;95.80
6822;DHT22;3449;48.728;8.968;2023-07-13T13:14:49;28.90;95.30
6822;DHT22;3449;48.728;8.968;2023-07-13T13:17:20;28.90;94.00
6822;DHT22;3449;48.728;8.968;2023-07-13T13:19:49;28.80;93.80
6822;DHT22;3449;48.728;8.968;2023-07-13T13:22:19;28.40;93.40
6822;DHT22;3449;48.728;8.968;2023-07-13T13:24:46;28.10;93.00
6822;DHT22;3449;48.728;8.968;2023-07-13T13:27:18;28.30;93.70
6822;DHT22;3449;48.728;8.968;2023-07-13T13:29:48;28.50;94.30
6822;DHT22;3449;48.728;8.968;2023-07-13T13:32:17;28.50;92.90
6822;DHT22;3449;48.728;8.968;2023-07-13T13:34:44;28.40;94.60
6822;DHT22;3449;48.728;8.968;2023-07-13T13:37:19;28.50;92.90
6822;DHT22;3449;48.728;8.968;2023-07-13T13:39:47;28.30;93.30
6822;DHT22;3449;48.728;8.968;2023-07-13T13:42:14;28.40;93.80
6822;DHT22;3449;48.728;8.968;2023-07-13T13:44:41;28.70;93.40
6822;DHT22;3449;48.728;8.968;2023-07-13T13:47:29;29.00;93.20
6822;DHT22;3449;48.728;8.968;2023-07-13T13:50:00;29.10;92.50
6822;DHT22;3449;48.728;8.968;2023-07-13T13:52:27;29.30;92.80
6822;DHT22;3449;48.728;8.968;2023-07-13T13:54:54;29.40;92.60
6822;DHT22;3449;48.728;8.968;2023-07-13T13:57:22;29.80;92.50
6822;DHT22;3449;48.728;8.968;2023-07-13T13:59:53;30.00;90.70
6822;DHT22;3449;48.728;8.968;2023-07-13T14:02:25;30.20;91.70
6822;DHT22;3449;48.728;8.968;2023-07-13T14:04:55;29.40;91.30
6822;DHT22;3449;48.728;8.968;2023-07-13T14:07:23;29.30;90.90
6822;DHT22;3449;48.728;8.968;2023-07-13T14:09:49;29.20;91.20
6822;DHT22;3449;48.728;8.968;2023-07-13T14:12:16;29.00;90.70
6822;DHT22;3449;48.728;8.968;2023-07-13T14:14:43;29.10;90.70
6822;DHT22;3449;48.728;8.968;2023-07-13T14:17:20;28.70;91.70
6822;DHT22;3449;48.728;8.968;2023-07-13T14:19:49;27.90;91.70
6822;DHT22;3449;48.728;8.968;2023-07-13T14:22:22;27.10;92.00
6822;DHT22;3449;48.728;8.968;2023-07-13T14:24:49;26.70;93.40
6822;DHT22;3449;48.728;8.968;2023-07-13T14:27:16;26.60;93.20
6822;DHT22;3449;48.728;8.968;2023-07-13T14:29:43;26.50;94.10
6822;DHT22;3449;48.728;8.968;2023-07-13T14:32:11;26.40;93.80
6822;DHT22;3449;48.728;8.968;2023-07-13T14:34:38;26.70;94.10
6822;DHT22;3449;48.728;8.968;2023-07-13T14:37:12;26.80;93.00
6822;DHT22;3449;48.728;8.968;2023-07-13T14:39:40;27.20;93.50
6822;DHT22;3449;48.728;8.968;2023-07-13T14:42:09;27.80;92.80
6822;DHT22;3449;48.728;8.968;2023-07-13T14:44:38;27.80;93.70
6822;DHT22;3449;48.728;8.968;2023-07-13T14:47:08;27.80;93.50
6822;DHT22;3449;48.728;8.968;2023-07-13T14:49:39;27.60;92.90
6822;DHT22;3449;48.728;8.968;2023-07-13T14:52:12;27.80;92.70
6822;DHT22;3449;48.728;8.968;2023-07-13T14:54:40;27.40;92.30
6822;DHT22;3449;48.728;8.968;2023-07-13T14:57:11;26.90;93.40
6822;DHT22;3449;48.728;8.968;2023-07-13T14:59:39;26.50;93.00
6822;DHT22;3449;48.728;8.968;2023-07-13T15:02:15;26.50;93.40
6822;DHT22;3449;48.728;8.968;2023-07-13T15:04:42;26.90;94.10
6822;DHT22;3449;48.728;8.968;2023-07-13T15:07:12;27.10;93.60
6822;DHT22;3449;48.728;8.968;2023-07-13T15:09:43;26.90;93.00
6822;DHT22;3449;48.728;8.968;2023-07-13T15:12:10;26.60;94.60
6822;DHT22;3449;48.728;8.968;2023-07-13T15:14:37;26.50;94.40
6822;DHT22;3449;48.728;8.968;2023-07-13T15:17:04;26.60;94.00
6822;DHT22;3449;48.728;8.968;2023-07-13T15:19:32;26.90;94.20
6822;DHT22;3449;48.728;8.968;2023-07-13T15:21:58;27.10;93.80
6822;DHT22;3449;48.728;8.968;2023-07-13T15:24:28;27.60;93.20
6822;DHT22;3449;48.728;8.968;2023-07-13T15:26:55;27.90;93.20
6822;DHT22;3449;48.728;8.968;2023-07-13T15:29:22;28.10;93.60
6822;DHT22;3449;48.728;8.968;2023-07-13T15:31:49;27.90;92.20
6822;DHT22;3449;48.728;8.968;2023-07-13T15:34:23;27.60;92.20
6822;DHT22;3449;48.728;8.968;2023-07-13T15:36:51;27.70;93.00
6822;DHT22;3449;48.728;8.968;2023-07-13T15:39:18;27.70;91.80
6822;DHT22;3449;48.728;8.968;2023-07-13T15:41:47;28.00;93.10
6822;DHT22;3449;48.728;8.968;2023-07-13T15:44:26;28.20;92.80
6822;DHT22;3449;48.728;8.968;2023-07-13T15:46:53;28.20;93.10
6822;DHT22;3449;48.728;8.968;2023-07-13T15:49:20;28.40;92.40
6822;DHT22;3449;48.728;8.968;2023-07-13T15:51:47;28.30;90.90
6822;DHT22;3449;48.728;8.968;2023-07-13T15:54:16;28.20;91.60
6822;DHT22;3449;48.728;8.968;2023-07-13T15:56:44;27.80;91.70
6822;DHT22;3449;48.728;8.968;2023-07-13T15:59:14;27.60;91.70
6822;DHT22;3449;48.728;8.968;2023-07-13T16:01:41;27.30;91.60
6822;DHT22;3449;48.728;8.968;2023-07-13T16:04:08;27.20;91.80
6822;DHT22;3449;48.728;8.968;2023-07-13T16:06:39;27.10;92.50
6822;DHT22;3449;48.728;8.968;2023-07-13T16:09:07;27.00;91.90
6822;DHT22;3449;48.728;8.968;2023-07-13T16:11:38;26.90;92.40
6822;DHT22;3449;48.728;8.968;2023-07-13T16:14:05;26.60;92.10
6822;DHT22;3449;48.728;8.968;2023-07-13T16:16:34;26.40;92.80
6822;DHT22;3449;48.728;8.968;2023-07-13T16:19:03;26.00;92.60